sensor_id;sensor_type;location;lat;lon;timestamp;P1;durP1;ratioP1;P2;durP2;ratioP2
56746;SDS011;42623;49.978;9.966;2023-02-15T00:00:08;26.20;;;17.63;;
56746;SDS011;42623;49.978;9.966;2023-02-15T00:00:20;29.42;;;17.25;;
56746;SDS011;42623;49.978;9.966;2023-02-15T00:00:30;28.35;;;16.23;;
56746;SDS011;42623;49.978;9.966;2023-02-15T00:00:40;27.90;;;16.03;;
56746;SDS011;42623;49.978;9.966;2023-02-15T00:00:50;26.00;;;16.10;;
56746;SDS011;42623;49.978;9.966;2023-02-15T00:01:07;34.57;;;21.77;;
56746;SDS011;42623;49.978;9.966;2023-02-15T00:01:17;59.15;;;38.83;;
56746;SDS011;42623;49.978;9.966;2023-02-15T00:01:27;65.03;;;42.63;;
56746;SDS011;42623;49.978;9.966;2023-02-15T00:01:37;51.27;;;34.00;;
56746;SDS011;42623;49.978;9.966;2023-02-15T00:01:48;40.27;;;26.07;;
56746;SDS011;42623;49.978;9.966;2023-02-15T00:01:58;34.80;;;23.95;;
56746;SDS011;42623;49.978;9.966;2023-02-15T00:02:08;39.25;;;27.13;;
56746;SDS011;42623;49.978;9.966;2023-02-15T00:02:19;46.33;;;31.07;;
56746;SDS011;42623;49.978;9.966;2023-02-15T00:02:29;50.60;;;30.70;;
56746;SDS011;42623;49.978;9.966;2023-02-15T00:02:40;42.60;;;25.57;;
56746;SDS011;42623;49.978;9.966;2023-02-15T00:02:50;43.30;;;25.30;;
56746;SDS011;42623;49.978;9.966;2023-02-15T00:03:00;41.97;;;26.80;;
56746;SDS011;42623;49.978;9.966;2023-02-15T00:03:10;44.07;;;29.57;;
56746;SDS011;42623;49.978;9.966;2023-02-15T00:03:20;43.03;;;29.55;;
56746;SDS011;42623;49.978;9.966;2023-02-15T00:03:31;44.47;;;28.23;;
56746;SDS011;42623;49.978;9.966;2023-02-15T00:03:41;43.27;;;25.27;;
56746;SDS011;42623;49.978;9.966;2023-02-15T00:03:51;41.25;;;23.10;;
56746;SDS011;42623;49.978;9.966;2023-02-15T00:04:01;38.60;;;22.07;;
56746;SDS011;42623;49.978;9.966;2023-02-15T00:04:12;38.15;;;21.70;;
56746;SDS011;42623;49.978;9.966;2023-02-15T00:04:23;35.55;;;21.88;;
56746;SDS011;42623;49.978;9.966;2023-02-15T00:04:34;32.95;;;21.27;;
56746;SDS011;42623;49.978;9.966;2023-02-15T00:04:56;35.33;;;19.98;;
56746;SDS011;42623;49.978;9.966;2023-02-15T00:05:06;32.10;;;17.67;;
56746;SDS011;42623;49.978;9.966;2023-02-15T00:05:17;29.58;;;16.42;;
56746;SDS011;42623;49.978;9.966;2023-02-15T00:05:27;27.53;;;15.50;;
56746;SDS011;42623;49.978;9.966;2023-02-15T00:05:39;24.98;;;14.02;;
56746;SDS011;42623;49.978;9.966;2023-02-15T00:05:49;21.60;;;12.97;;
56746;SDS011;42623;49.978;9.966;2023-02-15T00:05:59;22.57;;;13.63;;
56746;SDS011;42623;49.978;9.966;2023-02-15T00:06:09;22.30;;;14.45;;
56746;SDS011;42623;49.978;9.966;2023-02-15T00:06:19;22.27;;;13.63;;
56746;SDS011;42623;49.978;9.966;2023-02-15T00:06:30;20.73;;;12.37;;
56746;SDS011;42623;49.978;9.966;2023-02-15T00:06:40;21.87;;;12.73;;
56746;SDS011;42623;49.978;9.966;2023-02-15T00:06:50;21.10;;;12.30;;
56746;SDS011;42623;49.978;9.966;2023-02-15T00:07:00;20.23;;;12.07;;
56746;SDS011;42623;49.978;9.966;2023-02-15T00:07:10;20.53;;;11.77;;
56746;SDS011;42623;49.978;9.966;2023-02-15T00:07:21;21.87;;;13.33;;
56746;SDS011;42623;49.978;9.966;2023-02-15T00:07:31;31.70;;;19.65;;
56746;SDS011;42623;49.978;9.966;2023-02-15T00:07:41;42.00;;;28.03;;
56746;SDS011;42623;49.978;9.966;2023-02-15T00:07:51;55.67;;;36.63;;
56746;SDS011;42623;49.978;9.966;2023-02-15T00:08:01;55.20;;;36.93;;
56746;SDS011;42623;49.978;9.966;2023-02-15T00:08:11;52.80;;;34.55;;
56746;SDS011;42623;49.978;9.966;2023-02-15T00:08:22;48.43;;;31.50;;
56746;SDS011;42623;49.978;9.966;2023-02-15T00:08:32;47.33;;;30.17;;
56746;SDS011;42623;49.978;9.966;2023-02-15T00:08:42;50.45;;;32.90;;
56746;SDS011;42623;49.978;9.966;2023-02-15T00:08:53;57.13;;;38.00;;
56746;SDS011;42623;49.978;9.966;2023-02-15T00:09:03;78.55;;;51.13;;
56746;SDS011;42623;49.978;9.966;2023-02-15T00:09:14;78.87;;;50.27;;
56746;SDS011;42623;49.978;9.966;2023-02-15T00:09:24;68.50;;;45.10;;
56746;SDS011;42623;49.978;9.966;2023-02-15T00:09:34;49.58;;;33.70;;
56746;SDS011;42623;49.978;9.966;2023-02-15T00:09:45;40.00;;;28.30;;
56746;SDS011;42623;49.978;9.966;2023-02-15T00:09:55;34.08;;;23.05;;
56746;SDS011;42623;49.978;9.966;2023-02-15T00:10:06;30.73;;;19.80;;
56746;SDS011;42623;49.978;9.966;2023-02-15T00:10:16;31.42;;;18.55;;
56746;SDS011;42623;49.978;9.966;2023-02-15T00:10:27;33.22;;;19.33;;
56746;SDS011;42623;49.978;9.966;2023-02-15T00:10:37;33.77;;;20.30;;
56746;SDS011;42623;49.978;9.966;2023-02-15T00:10:47;33.37;;;20.37;;
56746;SDS011;42623;49.978;9.966;2023-02-15T00:11:04;32.20;;;19.83;;
56746;SDS011;42623;49.978;9.966;2023-02-15T00:11:16;29.00;;;19.77;;
56746;SDS011;42623;49.978;9.966;2023-02-15T00:11:26;24.55;;;16.83;;
56746;SDS011;42623;49.978;9.966;2023-02-15T00:11:55;31.13;;;18.63;;
56746;SDS011;42623;49.978;9.966;2023-02-15T00:12:05;29.30;;;18.70;;
56746;SDS011;42623;49.978;9.966;2023-02-15T00:12:16;29.27;;;17.40;;
56746;SDS011;42623;49.978;9.966;2023-02-15T00:12:26;29.20;;;16.97;;
56746;SDS011;42623;49.978;9.966;2023-02-15T00:12:36;30.70;;;16.73;;
56746;SDS011;42623;49.978;9.966;2023-02-15T00:12:46;30.43;;;16.40;;
56746;SDS011;42623;49.978;9.966;2023-02-15T00:12:56;30.90;;;16.57;;
56746;SDS011;42623;49.978;9.966;2023-02-15T00:13:07;30.17;;;16.27;;
56746;SDS011;42623;49.978;9.966;2023-02-15T00:13:17;28.65;;;16.45;;
56746;SDS011;42623;49.978;9.966;2023-02-15T00:13:27;27.40;;;15.57;;
56746;SDS011;42623;49.978;9.966;2023-02-15T00:13:37;24.80;;;14.87;;
56746;SDS011;42623;49.978;9.966;2023-02-15T00:13:48;24.85;;;13.93;;
56746;SDS011;42623;49.978;9.966;2023-02-15T00:13:58;23.07;;;13.20;;
56746;SDS011;42623;49.978;9.966;2023-02-15T00:14:28;26.55;;;14.98;;
56746;SDS011;42623;49.978;9.966;2023-02-15T00:14:38;26.10;;;14.83;;
56746;SDS011;42623;49.978;9.966;2023-02-15T00:14:48;24.37;;;14.33;;
56746;SDS011;42623;49.978;9.966;2023-02-15T00:14:58;25.03;;;15.80;;
56746;SDS011;42623;49.978;9.966;2023-02-15T00:15:09;27.73;;;18.03;;
56746;SDS011;42623;49.978;9.966;2023-02-15T00:15:19;29.03;;;18.73;;
56746;SDS011;42623;49.978;9.966;2023-02-15T00:15:29;30.38;;;18.38;;
56746;SDS011;42623;49.978;9.966;2023-02-15T00:15:39;27.10;;;15.83;;
56746;SDS011;42623;49.978;9.966;2023-02-15T00:15:49;27.60;;;15.37;;
56746;SDS011;42623;49.978;9.966;2023-02-15T00:16:00;26.00;;;14.83;;
56746;SDS011;42623;49.978;9.966;2023-02-15T00:16:11;24.70;;;14.43;;
56746;SDS011;42623;49.978;9.966;2023-02-15T00:16:22;23.65;;;13.52;;
56746;SDS011;42623;49.978;9.966;2023-02-15T00:16:32;22.03;;;13.67;;
56746;SDS011;42623;49.978;9.966;2023-02-15T00:16:43;21.23;;;13.63;;
56746;SDS011;42623;49.978;9.966;2023-02-15T00:16:53;20.23;;;13.65;;
56746;SDS011;42623;49.978;9.966;2023-02-15T00:17:04;21.77;;;13.20;;
56746;SDS011;42623;49.978;9.966;2023-02-15T00:17:14;21.92;;;13.50;;
56746;SDS011;42623;49.978;9.966;2023-02-15T00:17:27;22.47;;;14.10;;
56746;SDS011;42623;49.978;9.966;2023-02-15T00:17:37;22.50;;;14.00;;
56746;SDS011;42623;49.978;9.966;2023-02-15T00:17:47;24.70;;;14.63;;
56746;SDS011;42623;49.978;9.966;2023-02-15T00:17:57;28.07;;;16.50;;
56746;SDS011;42623;49.978;9.966;2023-02-15T00:18:07;27.07;;;17.03;;
56746;SDS011;42623;49.978;9.966;2023-02-15T00:18:17;28.80;;;18.67;;
56746;SDS011;42623;49.978;9.966;2023-02-15T00:18:28;31.67;;;20.67;;
56746;SDS011;42623;49.978;9.966;2023-02-15T00:18:38;34.53;;;22.97;;
56746;SDS011;42623;49.978;9.966;2023-02-15T00:18:48;35.35;;;23.08;;
56746;SDS011;42623;49.978;9.966;2023-02-15T00:19:01;35.08;;;21.20;;
56746;SDS011;42623;49.978;9.966;2023-02-15T00:19:12;33.95;;;19.10;;
56746;SDS011;42623;49.978;9.966;2023-02-15T00:19:22;29.40;;;16.57;;
56746;SDS011;42623;49.978;9.966;2023-02-15T00:19:33;26.13;;;14.73;;
56746;SDS011;42623;49.978;9.966;2023-02-15T00:19:43;24.50;;;13.30;;
56746;SDS011;42623;49.978;9.966;2023-02-15T00:19:53;22.13;;;12.10;;
56746;SDS011;42623;49.978;9.966;2023-02-15T00:20:03;22.63;;;12.93;;
56746;SDS011;42623;49.978;9.966;2023-02-15T00:20:14;24.40;;;13.50;;
56746;SDS011;42623;49.978;9.966;2023-02-15T00:20:24;25.10;;;13.40;;
56746;SDS011;42623;49.978;9.966;2023-02-15T00:20:34;29.53;;;15.90;;
56746;SDS011;42623;49.978;9.966;2023-02-15T00:20:44;38.47;;;22.63;;
56746;SDS011;42623;49.978;9.966;2023-02-15T00:20:55;44.10;;;26.43;;
56746;SDS011;42623;49.978;9.966;2023-02-15T00:21:06;40.27;;;24.00;;
56746;SDS011;42623;49.978;9.966;2023-02-15T00:21:16;39.08;;;23.23;;
56746;SDS011;42623;49.978;9.966;2023-02-15T00:21:26;38.43;;;23.30;;
56746;SDS011;42623;49.978;9.966;2023-02-15T00:21:37;50.00;;;30.80;;
56746;SDS011;42623;49.978;9.966;2023-02-15T00:21:48;47.45;;;30.25;;
56746;SDS011;42623;49.978;9.966;2023-02-15T00:21:58;47.83;;;29.70;;
56746;SDS011;42623;49.978;9.966;2023-02-15T00:22:08;35.13;;;22.23;;
56746;SDS011;42623;49.978;9.966;2023-02-15T00:22:19;32.28;;;18.52;;
56746;SDS011;42623;49.978;9.966;2023-02-15T00:22:29;33.80;;;19.00;;
56746;SDS011;42623;49.978;9.966;2023-02-15T00:22:39;31.40;;;18.77;;
56746;SDS011;42623;49.978;9.966;2023-02-15T00:22:50;31.30;;;20.37;;
56746;SDS011;42623;49.978;9.966;2023-02-15T00:23:00;33.80;;;21.77;;
56746;SDS011;42623;49.978;9.966;2023-02-15T00:23:10;38.03;;;22.87;;
56746;SDS011;42623;49.978;9.966;2023-02-15T00:23:20;37.40;;;21.97;;
56746;SDS011;42623;49.978;9.966;2023-02-15T00:23:30;33.05;;;19.52;;
56746;SDS011;42623;49.978;9.966;2023-02-15T00:23:41;29.40;;;18.67;;
56746;SDS011;42623;49.978;9.966;2023-02-15T00:23:51;27.65;;;17.73;;
56746;SDS011;42623;49.978;9.966;2023-02-15T00:24:02;28.67;;;18.53;;
56746;SDS011;42623;49.978;9.966;2023-02-15T00:24:13;28.42;;;18.13;;
56746;SDS011;42623;49.978;9.966;2023-02-15T00:24:24;28.50;;;17.35;;
56746;SDS011;42623;49.978;9.966;2023-02-15T00:24:34;29.42;;;16.63;;
56746;SDS011;42623;49.978;9.966;2023-02-15T00:24:44;32.07;;;16.87;;
56746;SDS011;42623;49.978;9.966;2023-02-15T00:24:55;28.30;;;15.90;;
56746;SDS011;42623;49.978;9.966;2023-02-15T00:25:05;22.90;;;13.60;;
56746;SDS011;42623;49.978;9.966;2023-02-15T00:25:15;18.70;;;12.07;;
56746;SDS011;42623;49.978;9.966;2023-02-15T00:25:25;19.07;;;12.07;;
56746;SDS011;42623;49.978;9.966;2023-02-15T00:25:35;17.47;;;11.83;;
56746;SDS011;42623;49.978;9.966;2023-02-15T00:25:45;16.45;;;10.73;;
56746;SDS011;42623;49.978;9.966;2023-02-15T00:26:09;16.60;;;10.30;;
56746;SDS011;42623;49.978;9.966;2023-02-15T00:26:19;23.58;;;12.70;;
56746;SDS011;42623;49.978;9.966;2023-02-15T00:26:29;25.55;;;13.63;;
56746;SDS011;42623;49.978;9.966;2023-02-15T00:26:40;23.37;;;14.47;;
56746;SDS011;42623;49.978;9.966;2023-02-15T00:26:50;22.58;;;14.63;;
56746;SDS011;42623;49.978;9.966;2023-02-15T00:27:01;23.90;;;14.67;;
56746;SDS011;42623;49.978;9.966;2023-02-15T00:27:11;26.27;;;14.10;;
56746;SDS011;42623;49.978;9.966;2023-02-15T00:27:21;28.50;;;14.27;;
56746;SDS011;42623;49.978;9.966;2023-02-15T00:27:32;28.63;;;14.23;;
56746;SDS011;42623;49.978;9.966;2023-02-15T00:27:42;29.73;;;15.20;;
56746;SDS011;42623;49.978;9.966;2023-02-15T00:27:53;25.23;;;14.13;;
56746;SDS011;42623;49.978;9.966;2023-02-15T00:28:03;23.42;;;13.80;;
56746;SDS011;42623;49.978;9.966;2023-02-15T00:28:13;22.43;;;14.73;;
56746;SDS011;42623;49.978;9.966;2023-02-15T00:28:23;21.87;;;14.80;;
56746;SDS011;42623;49.978;9.966;2023-02-15T00:28:33;20.63;;;14.30;;
56746;SDS011;42623;49.978;9.966;2023-02-15T00:28:44;20.35;;;13.30;;
56746;SDS011;42623;49.978;9.966;2023-02-15T00:28:54;21.73;;;14.00;;
56746;SDS011;42623;49.978;9.966;2023-02-15T00:29:05;24.05;;;13.82;;
56746;SDS011;42623;49.978;9.966;2023-02-15T00:29:15;24.37;;;14.03;;
56746;SDS011;42623;49.978;9.966;2023-02-15T00:29:26;25.83;;;13.60;;
56746;SDS011;42623;49.978;9.966;2023-02-15T00:29:36;38.47;;;23.53;;
56746;SDS011;42623;49.978;9.966;2023-02-15T00:29:46;40.75;;;24.10;;
56746;SDS011;42623;49.978;9.966;2023-02-15T00:29:57;37.80;;;22.90;;
56746;SDS011;42623;49.978;9.966;2023-02-15T00:30:07;23.15;;;12.93;;
56746;SDS011;42623;49.978;9.966;2023-02-15T00:30:17;21.97;;;13.10;;
56746;SDS011;42623;49.978;9.966;2023-02-15T00:30:28;25.23;;;14.73;;
56746;SDS011;42623;49.978;9.966;2023-02-15T00:30:38;28.55;;;17.10;;
56746;SDS011;42623;49.978;9.966;2023-02-15T00:30:48;29.03;;;16.90;;
56746;SDS011;42623;49.978;9.966;2023-02-15T00:31:08;28.03;;;16.53;;
56746;SDS011;42623;49.978;9.966;2023-02-15T00:31:19;22.60;;;12.88;;
56746;SDS011;42623;49.978;9.966;2023-02-15T00:31:29;22.07;;;12.53;;
56746;SDS011;42623;49.978;9.966;2023-02-15T00:31:40;21.77;;;13.70;;
56746;SDS011;42623;49.978;9.966;2023-02-15T00:31:50;23.33;;;14.15;;
56746;SDS011;42623;49.978;9.966;2023-02-15T00:32:01;22.97;;;15.33;;
56746;SDS011;42623;49.978;9.966;2023-02-15T00:32:11;25.63;;;17.73;;
56746;SDS011;42623;49.978;9.966;2023-02-15T00:32:22;27.23;;;19.07;;
56746;SDS011;42623;49.978;9.966;2023-02-15T00:32:32;29.10;;;18.77;;
56746;SDS011;42623;49.978;9.966;2023-02-15T00:32:42;34.37;;;20.10;;
56746;SDS011;42623;49.978;9.966;2023-02-15T00:32:52;33.88;;;19.63;;
56746;SDS011;42623;49.978;9.966;2023-02-15T00:33:02;33.33;;;20.20;;
56746;SDS011;42623;49.978;9.966;2023-02-15T00:33:13;31.67;;;20.93;;
56746;SDS011;42623;49.978;9.966;2023-02-15T00:33:24;47.25;;;31.10;;
56746;SDS011;42623;49.978;9.966;2023-02-15T00:33:35;57.80;;;40.17;;
56746;SDS011;42623;49.978;9.966;2023-02-15T00:33:45;69.25;;;46.33;;
56746;SDS011;42623;49.978;9.966;2023-02-15T00:34:00;60.03;;;39.03;;
56746;SDS011;42623;49.978;9.966;2023-02-15T00:34:11;44.85;;;27.38;;
56746;SDS011;42623;49.978;9.966;2023-02-15T00:34:22;28.33;;;17.73;;
56746;SDS011;42623;49.978;9.966;2023-02-15T00:34:33;28.00;;;17.85;;
56746;SDS011;42623;49.978;9.966;2023-02-15T00:34:43;29.90;;;19.97;;
56746;SDS011;42623;49.978;9.966;2023-02-15T00:34:53;30.90;;;19.97;;
56746;SDS011;42623;49.978;9.966;2023-02-15T00:35:03;27.77;;;18.15;;
56746;SDS011;42623;49.978;9.966;2023-02-15T00:35:14;25.43;;;17.43;;
56746;SDS011;42623;49.978;9.966;2023-02-15T00:35:24;24.63;;;17.37;;
56746;SDS011;42623;49.978;9.966;2023-02-15T00:35:34;24.55;;;17.63;;
56746;SDS011;42623;49.978;9.966;2023-02-15T00:35:44;22.67;;;16.00;;
56746;SDS011;42623;49.978;9.966;2023-02-15T00:35:57;21.20;;;13.93;;
56746;SDS011;42623;49.978;9.966;2023-02-15T00:36:08;20.13;;;12.95;;
56746;SDS011;42623;49.978;9.966;2023-02-15T00:36:19;22.50;;;14.27;;
56746;SDS011;42623;49.978;9.966;2023-02-15T00:36:29;25.17;;;14.00;;
56746;SDS011;42623;49.978;9.966;2023-02-15T00:36:39;24.73;;;13.40;;
56746;SDS011;42623;49.978;9.966;2023-02-15T00:36:50;23.93;;;12.30;;
56746;SDS011;42623;49.978;9.966;2023-02-15T00:37:00;23.20;;;14.13;;
56746;SDS011;42623;49.978;9.966;2023-02-15T00:37:10;24.03;;;14.87;;
56746;SDS011;42623;49.978;9.966;2023-02-15T00:37:20;24.07;;;16.93;;
56746;SDS011;42623;49.978;9.966;2023-02-15T00:37:30;28.10;;;17.87;;
56746;SDS011;42623;49.978;9.966;2023-02-15T00:37:40;28.90;;;18.83;;
56746;SDS011;42623;49.978;9.966;2023-02-15T00:37:50;36.30;;;22.57;;
56746;SDS011;42623;49.978;9.966;2023-02-15T00:38:02;35.40;;;23.20;;
56746;SDS011;42623;49.978;9.966;2023-02-15T00:38:12;35.73;;;23.03;;
56746;SDS011;42623;49.978;9.966;2023-02-15T00:38:22;30.75;;;19.10;;
56746;SDS011;42623;49.978;9.966;2023-02-15T00:38:32;28.60;;;17.83;;
56746;SDS011;42623;49.978;9.966;2023-02-15T00:38:42;36.03;;;20.40;;
56746;SDS011;42623;49.978;9.966;2023-02-15T00:38:53;53.53;;;30.07;;
56746;SDS011;42623;49.978;9.966;2023-02-15T00:39:03;65.75;;;38.38;;
56746;SDS011;42623;49.978;9.966;2023-02-15T00:39:14;68.53;;;43.58;;
56746;SDS011;42623;49.978;9.966;2023-02-15T00:39:25;60.33;;;40.58;;
56746;SDS011;42623;49.978;9.966;2023-02-15T00:39:37;58.30;;;37.15;;
56746;SDS011;42623;49.978;9.966;2023-02-15T00:39:47;55.73;;;31.27;;
56746;SDS011;42623;49.978;9.966;2023-02-15T00:39:57;42.20;;;24.47;;
56746;SDS011;42623;49.978;9.966;2023-02-15T00:40:07;47.63;;;28.00;;
56746;SDS011;42623;49.978;9.966;2023-02-15T00:40:18;77.78;;;51.78;;
56746;SDS011;42623;49.978;9.966;2023-02-15T00:40:28;85.03;;;58.97;;
56746;SDS011;42623;49.978;9.966;2023-02-15T00:40:38;74.63;;;51.87;;
56746;SDS011;42623;49.978;9.966;2023-02-15T00:40:52;39.03;;;27.37;;
56746;SDS011;42623;49.978;9.966;2023-02-15T00:41:03;28.98;;;18.40;;
56746;SDS011;42623;49.978;9.966;2023-02-15T00:41:13;22.85;;;15.95;;
56746;SDS011;42623;49.978;9.966;2023-02-15T00:41:24;23.50;;;15.70;;
56746;SDS011;42623;49.978;9.966;2023-02-15T00:41:34;21.70;;;14.07;;
56746;SDS011;42623;49.978;9.966;2023-02-15T00:41:44;23.93;;;14.17;;
56746;SDS011;42623;49.978;9.966;2023-02-15T00:41:54;23.40;;;13.73;;
56746;SDS011;42623;49.978;9.966;2023-02-15T00:42:05;23.13;;;15.03;;
56746;SDS011;42623;49.978;9.966;2023-02-15T00:42:15;26.97;;;18.60;;
56746;SDS011;42623;49.978;9.966;2023-02-15T00:42:25;29.53;;;20.27;;
56746;SDS011;42623;49.978;9.966;2023-02-15T00:42:35;29.30;;;18.40;;
56746;SDS011;42623;49.978;9.966;2023-02-15T00:42:45;26.13;;;15.00;;
56746;SDS011;42623;49.978;9.966;2023-02-15T00:42:55;27.67;;;14.50;;
56746;SDS011;42623;49.978;9.966;2023-02-15T00:43:06;29.20;;;15.13;;
56746;SDS011;42623;49.978;9.966;2023-02-15T00:43:16;28.00;;;15.33;;
56746;SDS011;42623;49.978;9.966;2023-02-15T00:43:26;23.97;;;14.30;;
56746;SDS011;42623;49.978;9.966;2023-02-15T00:43:37;22.75;;;14.65;;
56746;SDS011;42623;49.978;9.966;2023-02-15T00:43:47;22.75;;;14.75;;
56746;SDS011;42623;49.978;9.966;2023-02-15T00:43:57;28.67;;;18.17;;
56746;SDS011;42623;49.978;9.966;2023-02-15T00:44:07;46.53;;;29.23;;
56746;SDS011;42623;49.978;9.966;2023-02-15T00:44:18;72.37;;;45.87;;
56746;SDS011;42623;49.978;9.966;2023-02-15T01:04:11;10.20;;;3.30;;
56746;SDS011;42623;49.978;9.966;2023-02-15T01:04:21;14.82;;;6.03;;
56746;SDS011;42623;49.978;9.966;2023-02-15T01:04:31;14.80;;;7.30;;
56746;SDS011;42623;49.978;9.966;2023-02-15T01:04:41;14.33;;;8.47;;
56746;SDS011;42623;49.978;9.966;2023-02-15T01:04:51;17.23;;;9.63;;
56746;SDS011;42623;49.978;9.966;2023-02-15T01:05:01;19.45;;;10.68;;
56746;SDS011;42623;49.978;9.966;2023-02-15T01:05:12;20.97;;;11.17;;
56746;SDS011;42623;49.978;9.966;2023-02-15T01:05:22;20.77;;;12.53;;
56746;SDS011;42623;49.978;9.966;2023-02-15T01:05:32;21.73;;;12.65;;
56746;SDS011;42623;49.978;9.966;2023-02-15T01:05:42;21.17;;;13.57;;
56746;SDS011;42623;49.978;9.966;2023-02-15T01:05:52;22.27;;;13.47;;
56746;SDS011;42623;49.978;9.966;2023-02-15T01:06:03;22.60;;;13.47;;
56746;SDS011;42623;49.978;9.966;2023-02-15T01:06:14;23.23;;;13.45;;
56746;SDS011;42623;49.978;9.966;2023-02-15T01:06:24;23.45;;;13.10;;
56746;SDS011;42623;49.978;9.966;2023-02-15T01:06:34;24.27;;;13.47;;
56746;SDS011;42623;49.978;9.966;2023-02-15T01:06:44;24.23;;;14.43;;
56746;SDS011;42623;49.978;9.966;2023-02-15T01:06:55;23.00;;;15.93;;
56746;SDS011;42623;49.978;9.966;2023-02-15T01:07:05;25.60;;;17.80;;
56746;SDS011;42623;49.978;9.966;2023-02-15T01:07:15;27.67;;;18.33;;
56746;SDS011;42623;49.978;9.966;2023-02-15T01:07:25;26.87;;;17.13;;
56746;SDS011;42623;49.978;9.966;2023-02-15T01:07:35;24.63;;;16.33;;
56746;SDS011;42623;49.978;9.966;2023-02-15T01:07:45;23.70;;;16.10;;
56746;SDS011;42623;49.978;9.966;2023-02-15T01:07:56;26.77;;;16.70;;
56746;SDS011;42623;49.978;9.966;2023-02-15T01:08:06;24.88;;;15.15;;
56746;SDS011;42623;49.978;9.966;2023-02-15T01:08:17;23.27;;;14.37;;
56746;SDS011;42623;49.978;9.966;2023-02-15T01:08:27;21.47;;;12.63;;
56746;SDS011;42623;49.978;9.966;2023-02-15T01:08:37;22.27;;;12.75;;
56746;SDS011;42623;49.978;9.966;2023-02-15T01:08:47;23.70;;;14.40;;
56746;SDS011;42623;49.978;9.966;2023-02-15T01:08:58;24.73;;;15.70;;
56746;SDS011;42623;49.978;9.966;2023-02-15T01:09:08;25.73;;;16.63;;
56746;SDS011;42623;49.978;9.966;2023-02-15T01:09:18;26.47;;;16.23;;
56746;SDS011;42623;49.978;9.966;2023-02-15T01:09:28;25.70;;;16.17;;
56746;SDS011;42623;49.978;9.966;2023-02-15T01:09:38;26.13;;;15.20;;
56746;SDS011;42623;49.978;9.966;2023-02-15T01:09:49;25.40;;;14.48;;
56746;SDS011;42623;49.978;9.966;2023-02-15T01:09:59;27.17;;;14.37;;
56746;SDS011;42623;49.978;9.966;2023-02-15T01:10:09;26.63;;;15.03;;
56746;SDS011;42623;49.978;9.966;2023-02-15T01:10:19;24.20;;;14.80;;
56746;SDS011;42623;49.978;9.966;2023-02-15T01:10:29;21.45;;;14.88;;
56746;SDS011;42623;49.978;9.966;2023-02-15T01:10:40;22.47;;;15.70;;
56746;SDS011;42623;49.978;9.966;2023-02-15T01:10:50;23.20;;;15.05;;
56746;SDS011;42623;49.978;9.966;2023-02-15T01:11:08;21.50;;;13.80;;
56746;SDS011;42623;49.978;9.966;2023-02-15T01:11:20;19.95;;;11.88;;
56746;SDS011;42623;49.978;9.966;2023-02-15T01:11:33;21.35;;;11.85;;
56746;SDS011;42623;49.978;9.966;2023-02-15T01:11:43;19.80;;;11.93;;
56746;SDS011;42623;49.978;9.966;2023-02-15T01:11:53;19.60;;;12.13;;
56746;SDS011;42623;49.978;9.966;2023-02-15T01:12:03;19.70;;;11.63;;
56746;SDS011;42623;49.978;9.966;2023-02-15T01:12:14;19.87;;;11.90;;
56746;SDS011;42623;49.978;9.966;2023-02-15T01:12:24;18.77;;;11.30;;
56746;SDS011;42623;49.978;9.966;2023-02-15T01:12:34;17.33;;;11.30;;
56746;SDS011;42623;49.978;9.966;2023-02-15T01:12:44;18.30;;;11.30;;
56746;SDS011;42623;49.978;9.966;2023-02-15T01:12:55;19.83;;;12.75;;
56746;SDS011;42623;49.978;9.966;2023-02-15T01:13:05;22.00;;;13.03;;
56746;SDS011;42623;49.978;9.966;2023-02-15T01:13:16;23.52;;;12.88;;
56746;SDS011;42623;49.978;9.966;2023-02-15T01:13:26;22.03;;;12.00;;
56746;SDS011;42623;49.978;9.966;2023-02-15T01:13:36;20.73;;;11.53;;
56746;SDS011;42623;49.978;9.966;2023-02-15T01:13:51;20.65;;;11.95;;
56746;SDS011;42623;49.978;9.966;2023-02-15T01:14:01;21.75;;;12.68;;
56746;SDS011;42623;49.978;9.966;2023-02-15T01:14:13;20.42;;;12.10;;
56746;SDS011;42623;49.978;9.966;2023-02-15T01:14:24;22.23;;;12.50;;
56746;SDS011;42623;49.978;9.966;2023-02-15T01:14:34;20.80;;;12.03;;
56746;SDS011;42623;49.978;9.966;2023-02-15T01:14:44;19.23;;;12.70;;
56746;SDS011;42623;49.978;9.966;2023-02-15T01:14:54;20.87;;;13.10;;
56746;SDS011;42623;49.978;9.966;2023-02-15T01:15:05;22.33;;;13.13;;
56746;SDS011;42623;49.978;9.966;2023-02-15T01:15:15;22.80;;;12.35;;
56746;SDS011;42623;49.978;9.966;2023-02-15T01:15:25;24.60;;;12.53;;
56746;SDS011;42623;49.978;9.966;2023-02-15T01:15:35;24.03;;;12.37;;
56746;SDS011;42623;49.978;9.966;2023-02-15T01:15:45;24.90;;;12.33;;
56746;SDS011;42623;49.978;9.966;2023-02-15T01:15:55;22.65;;;12.18;;
56746;SDS011;42623;49.978;9.966;2023-02-15T01:16:06;26.67;;;13.40;;
56746;SDS011;42623;49.978;9.966;2023-02-15T01:16:16;26.23;;;13.93;;
56746;SDS011;42623;49.978;9.966;2023-02-15T01:16:27;27.90;;;15.90;;
56746;SDS011;42623;49.978;9.966;2023-02-15T01:16:37;31.77;;;22.40;;
56746;SDS011;42623;49.978;9.966;2023-02-15T01:16:48;33.10;;;24.33;;
56746;SDS011;42623;49.978;9.966;2023-02-15T01:16:58;28.80;;;21.27;;
56746;SDS011;42623;49.978;9.966;2023-02-15T01:17:08;21.70;;;14.57;;
56746;SDS011;42623;49.978;9.966;2023-02-15T01:17:18;20.23;;;13.87;;
56746;SDS011;42623;49.978;9.966;2023-02-15T01:17:29;21.97;;;14.97;;
56746;SDS011;42623;49.978;9.966;2023-02-15T01:17:39;23.50;;;15.52;;
56746;SDS011;42623;49.978;9.966;2023-02-15T01:17:49;22.63;;;14.97;;
56746;SDS011;42623;49.978;9.966;2023-02-15T01:18:01;19.52;;;14.05;;
56746;SDS011;42623;49.978;9.966;2023-02-15T01:18:11;19.60;;;12.63;;
56746;SDS011;42623;49.978;9.966;2023-02-15T01:18:22;19.70;;;11.63;;
56746;SDS011;42623;49.978;9.966;2023-02-15T01:18:32;23.45;;;11.95;;
56746;SDS011;42623;49.978;9.966;2023-02-15T01:18:42;24.37;;;12.63;;
56746;SDS011;42623;49.978;9.966;2023-02-15T01:18:53;22.85;;;12.80;;
56746;SDS011;42623;49.978;9.966;2023-02-15T01:19:04;20.92;;;12.82;;
56746;SDS011;42623;49.978;9.966;2023-02-15T01:19:14;20.47;;;12.43;;
56746;SDS011;42623;49.978;9.966;2023-02-15T01:19:24;20.77;;;11.83;;
56746;SDS011;42623;49.978;9.966;2023-02-15T01:19:34;19.00;;;11.07;;
56746;SDS011;42623;49.978;9.966;2023-02-15T01:19:45;19.73;;;11.33;;
56746;SDS011;42623;49.978;9.966;2023-02-15T01:19:55;19.07;;;11.17;;
56746;SDS011;42623;49.978;9.966;2023-02-15T01:20:05;20.52;;;12.25;;
56746;SDS011;42623;49.978;9.966;2023-02-15T01:20:16;19.00;;;12.18;;
56746;SDS011;42623;49.978;9.966;2023-02-15T01:20:27;18.00;;;11.93;;
56746;SDS011;42623;49.978;9.966;2023-02-15T01:20:38;19.20;;;12.25;;
56746;SDS011;42623;49.978;9.966;2023-02-15T01:20:50;21.10;;;11.68;;
56746;SDS011;42623;49.978;9.966;2023-02-15T01:21:08;24.90;;;12.27;;
56746;SDS011;42623;49.978;9.966;2023-02-15T01:21:19;21.77;;;12.10;;
56746;SDS011;42623;49.978;9.966;2023-02-15T01:21:30;18.88;;;12.00;;
56746;SDS011;42623;49.978;9.966;2023-02-15T01:21:40;22.23;;;13.47;;
56746;SDS011;42623;49.978;9.966;2023-02-15T01:21:51;25.80;;;14.50;;
56746;SDS011;42623;49.978;9.966;2023-02-15T01:22:01;28.23;;;15.43;;
56746;SDS011;42623;49.978;9.966;2023-02-15T01:22:11;32.10;;;22.10;;
56746;SDS011;42623;49.978;9.966;2023-02-15T01:22:21;34.10;;;25.60;;